.
WxDataArchive / Data Records for 2015-05-24
2015-05-23 May 2015 2015-05-25

Data Records for Sunday, 24 May 2015

Time	Temp	Chill	HIndex	Humid	Dewpt	 Wind 	HiWind	WindDir	Rain 	Barom
-----	----	-----	------	-----	-----	------	------	-------	-----	-----
00:00	59.0	59.0	59.0	71	49.6	0	0	---	0.00	30.218 
00:05	58.9	58.9	58.9	72	49.9	0	0	---	0.00	30.218 
00:10	58.7	58.7	58.7	72	49.7	0	0	---	0.00	30.218 
00:15	58.6	58.6	58.6	72	49.6	0	0	---	0.00	30.217 
00:20	58.4	58.4	58.4	72	49.4	0	0	---	0.00	30.217 
00:25	58.3	58.3	58.3	73	49.7	0	0	---	0.00	30.217 
00:30	58.1	58.1	58.1	73	49.5	0	0	---	0.00	30.219 
00:35	57.8	57.8	57.8	73	49.2	0	0	---	0.00	30.219 
00:40	57.6	57.6	57.6	73	49.0	0	0	---	0.00	30.219 
00:45	57.6	57.6	57.6	73	49.0	0	0	---	0.00	30.214 
00:50	57.5	57.5	57.5	73	48.9	0	0	---	0.00	30.214 
00:55	57.3	57.3	57.3	74	49.1	0	0	---	0.00	30.214 
01:00	57.2	57.2	57.2	76	49.7	0	0	---	0.00	30.216 
01:05	57.0	57.0	57.0	76	49.5	0	0	---	0.00	30.216 
01:10	56.9	56.9	56.9	76	49.4	0	0	---	0.00	30.216 
01:15	56.9	56.9	56.9	77	49.8	0	0	---	0.00	30.214 
01:20	56.7	56.7	56.7	77	49.6	0	0	---	0.00	30.214 
01:25	56.6	56.6	56.6	77	49.5	0	0	---	0.00	30.214 
01:30	56.5	56.5	56.5	77	49.4	0	0	---	0.00	30.213 
01:35	56.5	56.5	56.5	77	49.4	0	0	---	0.00	30.213 
01:40	56.3	56.3	56.3	77	49.2	0	0	---	0.00	30.213 
01:45	56.2	56.2	56.2	77	49.1	0	0	---	0.00	30.213 
01:50	56.2	56.2	56.2	77	49.1	0	0	---	0.00	30.213 
01:55	56.0	56.0	56.0	78	49.2	0	0	---	0.00	30.213 
02:00	55.9	55.9	55.9	78	49.1	0	0	---	0.00	30.205 
02:05	55.9	55.9	55.9	78	49.1	0	0	---	0.00	30.205 
02:10	55.7	55.7	55.7	79	49.3	0	0	---	0.00	30.205 
02:15	55.7	55.7	55.7	79	49.3	0	0	---	0.00	30.201 
02:20	55.6	55.6	55.6	79	49.2	0	0	---	0.00	30.201 
02:25	55.4	55.4	55.4	79	49.0	0	0	---	0.00	30.201 
02:30	55.4	55.4	55.4	79	49.0	0	0	---	0.00	30.201 
02:35	55.3	55.3	55.3	79	48.9	0	0	---	0.00	30.201 
02:40	55.1	55.1	55.1	79	48.7	0	0	---	0.00	30.201 
02:45	55.1	55.1	55.1	79	48.7	0	0	---	0.00	30.201 
02:50	55.0	55.0	55.0	79	48.6	0	0	---	0.00	30.201 
02:55	55.0	55.0	55.0	80	48.9	0	0	---	0.00	30.201 
03:00	54.8	54.8	54.8	80	48.7	0	0	---	0.00	30.209 
03:05	54.8	54.8	54.8	80	48.7	0	0	---	0.00	30.209 
03:10	54.7	54.7	54.7	80	48.7	0	0	---	0.00	30.209 
03:15	54.7	54.7	54.7	80	48.7	0	0	---	0.00	30.207 
03:20	54.5	54.5	54.5	80	48.5	0	0	---	0.00	30.207 
03:25	54.5	54.5	54.5	80	48.5	0	0	---	0.00	30.207 
03:30	54.4	54.4	54.4	80	48.4	0	0	---	0.00	30.206 
03:35	54.4	54.4	54.4	80	48.4	0	0	---	0.00	30.206 
03:40	54.4	54.4	54.4	79	48.0	0	0	---	0.00	30.206 
03:45	54.4	54.4	54.4	79	48.0	0	0	---	0.00	30.204 
03:50	54.5	54.5	54.5	78	47.8	0	0	---	0.00	30.204 
03:55	54.5	54.5	54.5	78	47.8	0	0	---	0.00	30.204 
04:00	54.5	54.5	54.5	77	47.4	0	0	---	0.00	30.206 
04:05	54.5	54.5	54.5	77	47.4	0	0	---	0.00	30.206 
04:10	54.5	54.5	54.5	78	47.8	0	0	---	0.00	30.206 
04:15	54.4	54.4	54.4	78	47.7	0	0	---	0.00	30.207 
04:20	54.2	54.2	54.2	78	47.5	0	0	---	0.00	30.207 
04:25	54.1	54.1	54.1	78	47.4	0	0	---	0.00	30.207 
04:30	53.9	53.9	53.9	78	47.2	0	0	---	0.00	30.206 
04:35	53.8	53.8	53.8	78	47.1	0	0	---	0.00	30.206 
04:40	53.8	53.8	53.8	79	47.4	0	0	---	0.00	30.206 
04:45	53.6	53.6	53.6	80	47.6	0	0	---	0.00	30.213 
04:50	53.5	53.5	53.5	80	47.5	0	0	---	0.00	30.213 
04:55	53.3	53.3	53.3	80	47.3	0	0	---	0.00	30.213 
05:00	53.3	53.3	53.3	81	47.6	0	0	---	0.00	30.213 
05:05	53.2	53.2	53.2	81	47.5	0	0	---	0.00	30.213 
05:10	53.1	53.1	53.1	81	47.4	0	0	---	0.00	30.213 
05:15	52.9	52.9	52.9	81	47.2	0	0	---	0.00	30.216 
05:20	52.8	52.8	52.8	81	47.1	0	0	---	0.00	30.216 
05:25	52.8	52.8	52.8	82	47.5	0	0	---	0.00	30.216 
05:30	52.6	52.6	52.6	82	47.3	0	0	---	0.00	30.214 
05:35	52.6	52.6	52.6	83	47.6	0	0	---	0.00	30.214 
05:40	52.6	52.6	52.6	83	47.6	0	0	---	0.00	30.214 
05:45	52.5	52.5	52.5	84	47.8	0	0	---	0.00	30.216 
05:50	52.5	52.5	52.5	84	47.8	0	0	---	0.00	30.216 
05:55	52.5	52.5	52.5	85	48.1	0	0	---	0.00	30.216 
06:00	52.3	52.3	52.3	85	47.9	0	0	---	0.00	30.218 
06:05	52.3	52.3	52.3	86	48.2	0	0	---	0.00	30.218 
06:10	52.3	52.3	52.3	86	48.2	0	0	---	0.00	30.218 
06:15	52.2	52.2	52.2	86	48.1	0	0	---	0.00	30.222 
06:20	52.3	52.3	52.3	87	48.5	0	0	---	0.00	30.222 
06:25	52.3	52.3	52.3	88	48.9	0	0	---	0.00	30.222 
06:30	52.6	52.6	52.6	88	49.1	0	0	---	0.00	30.218 
06:35	52.8	52.8	52.8	88	49.3	0	0	---	0.00	30.218 
06:40	53.1	53.1	53.1	89	49.9	0	0	---	0.00	30.218 
06:45	53.2	53.2	53.2	89	50.0	0	0	---	0.00	30.231 
06:50	53.3	53.3	53.3	89	50.1	0	0	---	0.00	30.231 
06:55	53.3	53.3	53.3	89	50.1	0	0	---	0.00	30.231 
07:00	53.5	53.5	53.5	89	50.3	0	0	---	0.00	30.230 
07:05	53.6	53.6	53.6	88	50.1	0	0	---	0.00	30.230 
07:10	53.8	53.8	53.8	88	50.3	0	0	---	0.00	30.230 
07:15	54.1	54.1	54.1	88	50.6	0	0	---	0.00	30.231 
07:20	54.2	54.2	54.2	87	50.4	0	0	---	0.00	30.231 
07:25	54.7	54.7	54.7	86	50.6	0	1	292	0.00	30.231 
07:30	55.1	55.1	55.1	84	50.4	0	1	292	0.00	30.228 
07:35	56.0	56.0	56.0	81	50.3	0	1	292	0.00	30.228 
07:40	56.7	56.7	56.7	79	50.3	0	1	292	0.00	30.228 
07:45	57.3	57.3	57.3	77	50.1	0	2	292	0.00	30.226 
07:50	57.8	57.8	57.8	76	50.3	0	2	292	0.00	30.226 
07:55	58.3	58.3	58.3	75	50.4	0	1	292	0.00	30.226 
08:00	58.6	58.6	58.6	75	50.7	0	1	292	0.00	30.223 
08:05	59.0	59.0	59.0	74	50.7	0	0	---	0.00	30.223 
08:10	59.3	59.3	59.3	73	50.6	0	0	---	0.00	30.223 
08:15	59.6	59.6	59.6	73	50.9	0	2	292	0.00	30.219 
08:20	59.8	59.8	59.8	71	50.4	0	1	292	0.00	30.219 
08:25	60.1	60.1	60.1	72	51.0	0	1	292	0.00	30.219 
08:30	60.4	60.4	60.4	72	51.3	0	1	292	0.00	30.219 
08:35	61.0	61.0	61.0	72	51.9	0	0	---	0.00	30.219 
08:40	62.1	62.1	62.1	70	52.2	0	1	292	0.00	30.219 
08:45	63.2	63.2	63.2	67	52.1	0	2	292	0.00	30.215 
08:50	63.7	63.7	63.7	64	51.3	1	3	292	0.00	30.215 
08:55	64.2	64.2	64.2	65	52.2	0	1	180	0.00	30.215 
09:00	64.8	64.8	64.8	64	52.3	0	1	180	0.00	30.204 
09:05	65.6	65.6	65.6	62	52.2	0	2	180	0.00	30.204 
09:10	66.4	66.4	66.4	59	51.6	0	1	180	0.00	30.204 
09:15	67.4	67.4	67.4	57	51.6	0	1	180	0.00	30.210 
09:20	68.4	68.4	68.4	57	52.6	0	2	180	0.00	30.210 
09:25	69.6	69.6	69.6	54	52.2	0	2	180	0.00	30.210 
09:30	70.8	70.8	70.8	49	50.7	1	3	112	0.00	30.202 
09:35	71.5	71.5	71.5	48	50.8	1	3	112	0.00	30.202 
09:40	72.0	72.0	72.0	48	51.2	0	2	112	0.00	30.202 
09:45	72.1	72.1	72.1	47	50.7	0	4	112	0.00	30.201 
09:50	72.1	72.1	72.1	47	50.7	0	2	90	0.00	30.201 
09:55	72.0	72.0	72.0	48	51.2	0	3	90	0.00	30.201 
10:00	72.0	72.0	72.0	49	51.8	1	4	90	0.00	30.199 
10:05	71.8	71.8	71.8	50	52.1	0	2	90	0.00	30.199 
10:10	71.6	71.6	71.6	50	52.0	0	1	90	0.00	30.199 
10:15	71.3	71.3	71.3	50	51.7	0	1	90	0.00	30.201 
10:20	71.1	71.1	71.1	51	52.0	0	2	90	0.00	30.201 
10:25	70.9	70.9	70.9	51	51.9	0	3	90	0.00	30.201 
10:30	70.8	70.8	70.8	52	52.3	0	1	90	0.00	30.199 
10:35	70.8	70.8	70.8	53	52.8	0	0	---	0.00	30.199 
10:40	70.6	70.6	70.6	52	52.1	0	1	90	0.00	30.199 
10:45	70.6	70.6	70.6	53	52.6	0	1	90	0.00	30.200 
10:50	70.4	70.4	70.4	53	52.4	0	2	90	0.00	30.200 
10:55	70.4	70.4	70.4	52	51.9	0	1	90	0.00	30.200 
11:00	70.6	70.6	70.6	52	52.1	0	1	90	0.00	30.198 
11:05	70.6	70.6	70.6	52	52.1	0	3	90	0.00	30.198 
11:10	70.8	70.8	70.8	54	53.3	0	2	90	0.00	30.198 
11:15	70.8	70.8	70.8	54	53.3	0	1	90	0.00	30.198 
11:20	70.9	70.9	70.9	53	52.9	0	1	90	0.00	30.198 
11:25	71.3	71.3	71.3	54	53.8	0	1	90	0.00	30.198 
11:30	71.5	71.5	71.5	52	52.9	0	1	90	0.00	30.191 
11:35	71.5	71.5	71.5	53	53.5	0	2	90	0.00	30.191 
11:40	71.8	71.8	71.8	54	54.2	0	1	90	0.00	30.191 
11:45	72.3	72.3	72.3	53	54.2	0	2	90	0.00	30.187 
11:50	73.0	73.0	73.0	51	53.8	1	3	90	0.00	30.187 
11:55	73.5	73.5	73.5	50	53.7	0	3	90	0.00	30.187 
12:00	73.9	73.9	73.9	51	54.6	0	1	90	0.00	30.182 
12:05	73.9	73.9	73.9	52	55.1	0	2	22	0.00	30.182 
12:10	73.9	73.9	73.9	52	55.1	0	2	22	0.00	30.182 
12:15	73.9	73.9	73.9	52	55.1	0	2	22	0.00	30.180 
12:20	73.9	73.9	73.9	51	54.6	0	2	45	0.00	30.180 
12:25	74.0	74.0	74.0	53	55.8	0	2	45	0.00	30.180 
12:30	74.2	74.2	74.2	52	55.4	0	1	45	0.00	30.177 
12:35	74.4	74.4	74.4	53	56.1	0	1	45	0.00	30.177 
12:40	74.7	74.7	74.7	53	56.4	0	1	45	0.00	30.177 
12:45	75.3	75.3	77.7	53	57.0	0	1	45	0.00	30.166 
12:50	75.6	75.6	77.9	51	56.2	0	1	45	0.00	30.166 
12:55	76.0	76.0	78.1	51	56.5	0	2	338	0.00	30.166 
13:00	76.7	76.7	78.4	50	56.6	0	3	0	0.00	30.160 
13:05	77.0	77.0	78.5	48	55.8	0	3	0	0.00	30.160 
13:10	77.2	77.2	78.7	48	56.0	1	3	90	0.00	30.160 
13:15	77.4	77.4	78.8	48	56.1	0	2	338	0.00	30.156 
13:20	77.7	77.7	78.9	47	55.8	0	3	90	0.00	30.156 
13:25	78.3	78.3	79.3	47	56.4	0	1	90	0.00	30.156 
13:30	79.0	79.0	79.9	49	58.2	0	2	90	0.00	30.149 
13:35	79.6	79.6	79.9	43	55.1	1	4	90	0.00	30.149 
13:40	79.8	79.8	80.0	42	54.6	0	2	90	0.00	30.149 
13:45	79.8	79.8	80.2	45	56.5	0	1	90	0.00	30.145 
13:50	80.1	80.1	80.3	43	55.6	0	1	90	0.00	30.145 
13:55	79.9	79.9	80.2	44	56.0	0	2	90	0.00	30.145 
14:00	79.9	79.9	80.2	44	56.0	1	4	90	0.00	30.134 
14:05	80.1	80.1	80.4	45	56.8	0	2	112	0.00	30.134 
14:10	79.9	79.9	80.2	44	56.0	1	3	225	0.00	30.134 
14:15	80.1	80.1	80.3	43	55.6	0	1	180	0.00	30.133 
14:20	79.9	79.9	80.2	44	56.0	0	2	180	0.00	30.133 
14:25	79.9	79.9	80.3	45	56.6	0	1	180	0.00	30.133 
14:30	80.1	80.1	80.5	46	57.4	0	2	180	0.00	30.127 
14:35	79.9	79.9	80.1	43	55.4	0	4	270	0.00	30.127 
14:40	80.1	80.1	80.3	44	56.2	0	2	270	0.00	30.127 
14:45	80.1	80.1	80.3	43	55.6	0	2	270	0.00	30.121 
14:50	80.3	80.3	80.7	46	57.6	0	3	270	0.00	30.121 
14:55	80.7	80.7	80.6	42	55.4	1	4	112	0.00	30.121 
15:00	81.1	81.1	81.0	43	56.5	1	3	112	0.00	30.114 
15:05	81.2	81.2	81.3	45	57.8	1	4	90	0.00	30.114 
15:10	81.4	81.4	81.1	41	55.4	0	2	22	0.00	30.114 
15:15	81.4	81.4	81.3	43	56.7	0	1	22	0.00	30.111 
15:20	81.4	81.4	81.4	44	57.4	1	3	22	0.00	30.111 
15:25	81.8	81.8	81.4	41	55.8	1	4	22	0.00	30.111 
15:30	82.4	82.4	81.9	41	56.3	1	4	90	0.00	30.100 
15:35	82.8	82.8	82.0	39	55.3	1	5	135	0.00	30.100 
15:40	82.8	82.8	82.4	42	57.3	0	2	112	0.00	30.100 
15:45	82.8	82.8	82.2	40	56.0	1	4	112	0.00	30.093 
15:50	82.6	82.6	81.8	39	55.1	1	4	90	0.00	30.093 
15:55	82.4	82.4	81.8	40	55.6	1	5	112	0.00	30.093 
16:00	82.0	82.0	81.5	40	55.3	1	4	112	0.00	30.085 
16:05	82.0	82.0	81.3	39	54.6	1	3	112	0.00	30.085 
16:10	82.6	82.6	82.4	43	57.8	1	3	135	0.00	30.085 
16:15	83.0	83.0	82.0	37	54.0	3	7	90	0.00	30.081 
16:20	83.0	83.0	82.1	38	54.7	1	4	90	0.00	30.081 
16:25	83.0	83.0	82.2	39	55.5	1	5	90	0.00	30.081 
16:30	83.0	83.0	81.8	36	53.3	2	7	112	0.00	30.071 
16:35	82.6	82.6	81.6	37	53.7	1	4	90	0.00	30.071 
16:40	82.2	82.2	81.6	40	55.4	1	4	90	0.00	30.071 
16:45	82.6	82.6	81.6	37	53.7	1	5	90	0.00	30.068 
16:50	83.2	83.2	82.0	36	53.4	1	4	90	0.00	30.068 
16:55	83.2	83.2	82.1	37	54.2	2	7	112	0.00	30.068 
17:00	82.6	82.6	81.7	38	54.4	1	4	68	0.00	30.057 
17:05	82.4	82.4	81.6	38	54.2	1	4	90	0.00	30.057 
17:10	82.4	82.4	81.6	38	54.2	0	5	90	0.00	30.057 
17:15	82.2	82.2	81.4	38	54.0	0	3	112	0.00	30.055 
17:20	82.0	82.0	81.2	38	53.9	1	4	112	0.00	30.055 
17:25	82.0	82.0	80.9	35	51.6	1	3	112	0.00	30.055 
17:30	82.2	82.2	81.2	36	52.6	1	5	112	0.00	30.049 
17:35	82.6	82.6	81.4	35	52.1	1	5	112	0.00	30.049 
17:40	83.0	83.0	81.7	35	52.5	1	5	135	0.00	30.049 
17:45	83.4	83.4	82.1	35	52.8	1	3	292	0.00	30.043 
17:50	83.4	83.4	82.1	35	52.8	1	4	90	0.00	30.043 
17:55	83.4	83.4	82.2	36	53.6	1	4	90	0.00	30.043 
18:00	83.2	83.2	81.9	35	52.7	1	9	112	0.00	30.040 
18:05	83.0	83.0	81.5	33	50.9	0	3	112	0.00	30.040 
18:10	82.8	82.8	81.3	33	50.7	1	5	248	0.00	30.040 
18:15	82.6	82.6	81.2	33	50.6	1	4	90	0.00	30.037 
18:20	82.2	82.2	81.1	35	51.8	0	3	90	0.00	30.037 
18:25	82.0	82.0	81.0	36	52.4	1	5	338	0.00	30.037 
18:30	82.0	82.0	80.9	35	51.6	1	5	68	0.00	30.026 
18:35	82.0	82.0	81.0	36	52.4	1	3	68	0.00	30.026 
18:40	82.0	82.0	81.1	37	53.1	1	4	68	0.00	30.026 
18:45	82.0	82.0	81.1	37	53.1	0	2	68	0.00	30.022 
18:50	81.8	81.8	80.9	36	52.2	1	4	68	0.00	30.022 
18:55	81.8	81.8	81.0	37	53.0	1	3	112	0.00	30.022 
19:00	81.6	81.6	80.9	38	53.5	1	3	112	0.00	30.020 
19:05	81.4	81.4	80.7	37	52.6	1	4	112	0.00	30.020 
19:10	81.1	81.1	80.5	38	53.1	2	6	90	0.00	30.020 
19:15	80.9	80.9	80.4	38	52.9	1	5	45	0.00	30.016 
19:20	80.5	80.5	80.0	37	51.8	1	4	90	0.00	30.016 
19:25	80.5	80.5	80.1	38	52.5	1	3	45	0.00	30.016 
19:30	80.3	80.3	80.0	38	52.4	1	4	112	0.00	30.012 
19:35	80.1	80.1	79.9	39	52.9	1	3	112	0.00	30.012 
19:40	79.8	79.8	79.7	39	52.6	0	2	112	0.00	30.012 
19:45	79.6	79.6	79.6	39	52.4	1	6	112	0.00	30.008 
19:50	79.6	79.6	79.6	39	52.4	2	5	112	0.00	30.008 
19:55	79.4	79.4	79.5	39	52.3	1	3	90	0.00	30.008 
20:00	79.2	79.2	79.3	39	52.1	1	4	90	0.00	30.005 
20:05	79.2	79.2	79.3	39	52.1	0	3	90	0.00	30.005 
20:10	78.8	78.8	79.2	40	52.4	1	4	90	0.00	30.005 
20:15	78.8	78.8	79.2	40	52.4	1	3	90	0.00	30.002 
20:20	78.6	78.6	79.0	40	52.2	1	3	90	0.00	30.002 
20:25	78.6	78.6	79.1	41	52.9	0	3	90	0.00	30.002 
20:30	78.6	78.6	79.1	41	52.9	0	3	90	0.00	30.006 
20:35	78.5	78.5	79.1	41	52.8	0	1	90	0.00	30.006 
20:40	78.3	78.3	79.0	42	53.3	0	2	90	0.00	30.006 
20:45	78.1	78.1	78.9	42	53.1	0	4	90	0.00	30.013 
20:50	77.9	77.9	78.8	43	53.6	0	1	90	0.00	30.013 
20:55	77.7	77.7	78.7	43	53.4	0	2	90	0.00	30.013 
21:00	77.4	77.4	78.6	43	53.1	0	2	90	0.00	30.005 
21:05	77.2	77.2	78.5	43	52.9	0	1	90	0.00	30.005 
21:10	77.0	77.0	78.4	43	52.8	0	1	90	0.00	30.005 
21:15	76.8	76.8	78.3	43	52.6	0	2	90	0.00	29.999 
21:20	76.7	76.7	78.3	44	53.1	0	2	90	0.00	29.999 
21:25	76.5	76.5	78.2	44	52.9	0	2	90	0.00	29.999 
21:30	76.3	76.3	78.1	44	52.8	0	4	90	0.00	29.998 
21:35	76.1	76.1	78.0	44	52.6	0	2	90	0.00	29.998 
21:40	76.0	76.0	78.0	45	53.1	0	2	90	0.00	29.998 
21:45	75.8	75.8	77.9	45	52.9	0	2	90	0.00	30.002 
21:50	75.8	75.8	77.9	45	52.9	0	3	90	0.00	30.002 
21:55	75.6	75.6	77.8	46	53.3	0	2	90	0.00	30.002 
22:00	75.4	75.4	77.8	46	53.2	0	2	90	0.00	30.004 
22:05	75.3	75.3	77.7	46	53.1	0	2	90	0.00	30.004 
22:10	75.1	75.1	77.7	46	52.9	0	2	90	0.00	30.004 
22:15	74.9	74.9	74.9	46	52.7	0	1	90	0.00	30.012 
22:20	74.7	74.7	74.7	47	53.1	0	2	90	0.00	30.012 
22:25	74.6	74.6	74.6	47	53.0	0	2	90	0.00	30.012 
22:30	74.4	74.4	74.4	48	53.4	0	1	90	0.00	30.014 
22:35	74.2	74.2	74.2	48	53.2	0	2	90	0.00	30.014 
22:40	74.2	74.2	74.2	48	53.2	0	3	90	0.00	30.014 
22:45	74.0	74.0	74.0	48	53.0	0	3	90	0.00	30.016 
22:50	73.9	73.9	73.9	49	53.5	0	3	90	0.00	30.016 
22:55	73.9	73.9	73.9	49	53.5	0	2	90	0.00	30.016 
23:00	73.9	73.9	73.9	49	53.5	0	2	90	0.00	30.016 
23:05	73.7	73.7	73.7	49	53.3	0	1	90	0.00	30.016 
23:10	73.5	73.5	73.5	49	53.2	0	1	90	0.00	30.016 
23:15	73.5	73.5	73.5	50	53.7	0	1	90	0.00	30.013 
23:20	73.3	73.3	73.3	50	53.5	0	2	90	0.00	30.013 
23:25	73.3	73.3	73.3	50	53.5	0	2	90	0.00	30.013 
23:30	73.3	73.3	73.3	50	53.5	0	3	90	0.00	30.011 
23:35	73.3	73.3	73.3	50	53.5	0	2	90	0.00	30.011 
23:40	73.3	73.3	73.3	50	53.5	0	2	90	0.00	30.011 
23:45	73.3	73.3	73.3	50	53.5	0	2	90	0.00	30.004 
23:50	73.3	73.3	73.3	50	53.5	0	3	90	0.00	30.004 
23:55	73.2	73.2	73.2	50	53.4	0	3	90	0.00	30.004 

CoCoRaHS
IN-AL-39
A2 Web Hosting
Creative Commons License
GoDaddy
search engine by freefind advanced

loaded 2018-11-15 18:00:39 • last modified 2010-11-18 10:43:29
Privacy PolicyDisclaimer
• wx.awcolley.com is powered by PmWiki v.2002016 •
• all content (unless otherwise noted) © 2018 A W Colley